Time;durP1;ratioP1;P1;durP2;ratioP2;P2;SDS_P1;SDS_P2;PMS_P1;PMS_P2;Temp;Humidity;BMP_temperature;BMP_pressure;BME280_temperature;BME280_humidity;BME280_pressure;Samples;Min_cycle;Max_cycle;Signal;HPM_P1;HPM_P2
2023/07/21 00:00:42;;;;;;;23.10;8.70;;;;;;;-142.57;65.14;115900.28;6225917;23;20009;-90
2023/07/21 00:03:08;;;;;;;22.13;9.32;;;;;;;-142.57;64.80;115900.28;6199070;23;20025;-90
2023/07/21 00:05:34;;;;;;;20.55;8.13;;;;;;;-142.57;65.08;115900.28;6174836;23;20423;-90
2023/07/21 00:08:00;;;;;;;21.80;8.20;;;;;;;-142.57;64.74;115900.28;6200967;23;20013;-91
2023/07/21 00:10:25;;;;;;;21.02;8.18;;;;;;;-142.57;64.94;115900.28;6229146;23;20028;-88
2023/07/21 00:12:51;;;;;;;25.48;8.45;;;;;;;-142.57;64.89;115900.28;6227052;23;20106;-91
2023/07/21 00:15:19;;;;;;;19.40;8.05;;;;;;;-142.57;65.41;115900.28;6172335;23;20043;-88
2023/07/21 00:17:48;;;;;;;21.02;9.20;;;;;;;-142.57;66.93;115900.28;6223276;23;20454;-90
2023/07/21 00:20:21;;;;;;;20.05;8.30;;;;;;;-142.57;66.93;115900.28;6225968;23;20059;-89
2023/07/21 00:22:47;;;;;;;21.77;8.65;;;;;;;-142.57;66.59;115900.28;6199965;23;20009;-91
2023/07/21 00:25:16;;;;;;;18.98;8.05;;;;;;;-142.57;66.08;115900.28;6223884;23;20012;-89
2023/07/21 00:27:42;;;;;;;21.10;9.00;;;;;;;-142.57;66.49;115900.28;6221531;23;20063;-91
2023/07/21 00:30:09;;;;;;;18.48;8.20;;;;;;;-142.57;66.63;115900.28;6221883;23;20394;-92
2023/07/21 00:32:36;;;;;;;25.10;7.95;;;;;;;-142.57;65.97;115900.28;6169972;23;20443;-92
2023/07/21 00:35:08;;;;;;;16.15;7.78;;;;;;;-142.57;65.88;115900.28;6223245;23;20017;-91
2023/07/21 00:37:34;;;;;;;17.90;8.05;;;;;;;-142.57;65.56;115900.28;6172467;23;20016;-90
2023/07/21 00:39:59;;;;;;;19.17;8.32;;;;;;;-142.57;65.48;115900.28;6197089;23;20019;-89
2023/07/21 00:42:28;;;;;;;13.52;7.85;;;;;;;-142.57;65.74;115900.28;6197500;23;20061;-93
2023/07/21 00:44:54;;;;;;;25.63;8.52;;;;;;;-142.57;64.95;115900.28;6200186;23;20012;-89
2023/07/21 00:47:20;;;;;;;17.08;8.52;;;;;;;-142.57;64.22;115900.28;6214163;23;20082;-89
2023/07/21 00:49:46;;;;;;;18.52;8.50;;;;;;;-142.57;64.93;115900.28;6243736;23;20009;-88
2023/07/21 00:52:17;;;;;;;20.55;7.68;;;;;;;-142.57;66.44;115900.28;6218112;23;20007;-89
2023/07/21 00:54:47;;;;;;;14.98;8.70;;;;;;;-142.57;66.98;115900.28;6243878;23;19996;-89
2023/07/21 00:57:33;;;;;;;23.90;8.73;;;;;;;-142.57;67.21;115900.28;6215607;23;20019;-91
2023/07/21 00:59:58;;;;;;;18.30;8.57;;;;;;;-142.57;67.97;115900.28;6208193;23;20035;-89
2023/07/21 01:02:24;;;;;;;20.85;8.02;;;;;;;-142.57;67.45;115900.28;6187260;23;20056;-90
2023/07/21 01:04:51;;;;;;;19.15;7.53;;;;;;;-142.57;67.05;115900.28;6199266;23;20030;-90
2023/07/21 01:07:19;;;;;;;17.17;7.82;;;;;;;-142.57;66.31;115900.28;6197907;23;20040;-89
2023/07/21 01:09:45;;;;;;;16.00;7.70;;;;;;;-142.57;65.83;115900.28;6194369;23;20385;-91
2023/07/21 01:12:11;;;;;;;18.08;8.55;;;;;;;-142.57;65.02;115900.28;6195650;23;20020;-89
2023/07/21 01:14:37;;;;;;;21.05;8.77;;;;;;;-142.57;65.14;115900.28;6221155;23;20004;-89
2023/07/21 01:17:08;;;;;;;19.20;8.05;;;;;;;-142.57;65.66;115900.28;6221230;23;20081;-90
2023/07/21 01:19:36;;;;;;;14.80;7.20;;;;;;;-142.57;65.92;115900.28;6223982;23;20009;-92
2023/07/21 01:22:09;;;;;;;15.40;8.00;;;;;;;-142.57;64.74;115900.28;6230365;23;20015;-90
2023/07/21 01:25:13;;;;;;;13.68;7.63;;;;;;;-142.57;65.46;115900.28;6206443;23;20461;-87
2023/07/21 01:27:41;;;;;;;20.02;8.35;;;;;;;-142.57;65.48;115900.28;6218014;23;20013;-87
2023/07/21 01:30:12;;;;;;;16.30;8.32;;;;;;;-142.57;64.92;115900.28;6191176;23;20457;-87
2023/07/21 01:32:44;;;;;;;20.33;8.50;;;;;;;-142.57;65.12;115900.28;6218914;23;20020;-87
2023/07/21 01:35:15;;;;;;;20.30;7.57;;;;;;;-142.57;65.28;115900.28;6191769;23;20339;-86
2023/07/21 01:37:43;;;;;;;14.45;7.20;;;;;;;-142.57;65.01;115900.28;6167275;23;20016;-86
2023/07/21 01:40:15;;;;;;;17.58;7.93;;;;;;;-142.57;64.68;115900.28;6193260;23;20110;-87
2023/07/21 01:42:46;;;;;;;16.80;7.35;;;;;;;-142.57;65.85;115900.28;6203994;23;20024;-89
2023/07/21 01:45:12;;;;;;;21.65;8.43;;;;;;;-142.57;65.10;115900.28;6200984;23;20357;-88
2023/07/21 01:47:37;;;;;;;18.20;7.78;;;;;;;-142.57;64.67;115900.28;6219870;23;20004;-85
2023/07/21 01:50:06;;;;;;;18.80;8.50;;;;;;;-142.57;64.81;115900.28;6167984;23;20024;-87
2023/07/21 01:52:34;;;;;;;16.33;7.82;;;;;;;-142.57;65.08;115900.28;6192962;23;20016;-87
2023/07/21 01:55:09;;;;;;;19.17;8.07;;;;;;;-142.57;64.33;115900.28;6193287;23;20360;-92
2023/07/21 01:57:38;;;;;;;15.32;8.02;;;;;;;-142.57;65.73;115900.28;6167901;23;20004;-91
2023/07/21 02:00:12;;;;;;;17.17;7.75;;;;;;;-142.57;65.60;115900.28;6192339;23;20009;-90
2023/07/21 02:02:47;;;;;;;16.77;8.20;;;;;;;-142.57;65.37;115900.28;6169236;23;20432;-90
2023/07/21 02:05:19;;;;;;;13.57;7.30;;;;;;;-142.57;65.04;115900.28;6195120;23;20371;-87
2023/07/21 02:07:44;;;;;;;22.25;8.27;;;;;;;-142.57;64.71;115900.28;6195583;23;20427;-87
2023/07/21 02:10:11;;;;;;;16.27;7.97;;;;;;;-142.57;65.22;115900.28;6221932;23;20074;-88
2023/07/21 02:12:38;;;;;;;20.15;8.57;;;;;;;-142.57;65.54;115900.28;6194787;23;20057;-89
2023/07/21 02:15:11;;;;;;;17.17;7.38;;;;;;;-142.57;65.89;115900.28;6194956;23;20012;-89
2023/07/21 02:17:37;;;;;;;20.27;7.88;;;;;;;-142.57;66.32;115900.28;6218131;23;20008;-87
2023/07/21 02:20:09;;;;;;;21.17;8.75;;;;;;;-142.57;66.64;115900.28;6194090;23;20024;-85
2023/07/21 02:22:39;;;;;;;19.63;9.05;;;;;;;-142.57;67.24;115900.28;6202187;23;20013;-88
2023/07/21 02:25:06;;;;;;;21.30;9.05;;;;;;;-142.57;67.66;115900.28;6199690;23;20055;-87
2023/07/21 02:27:33;;;;;;;20.90;9.90;;;;;;;-142.57;68.77;115900.28;6194307;23;21029;-88
2023/07/21 02:29:59;;;;;;;23.85;11.60;;;;;;;-142.57;71.68;115900.28;6169486;23;20016;-91
2023/07/21 02:32:25;;;;;;;27.65;14.13;;;;;;;-142.57;75.72;115900.28;6220655;23;20019;-91
2023/07/21 02:34:51;;;;;;;27.80;14.45;;;;;;;-142.57;78.65;115900.28;6193139;23;20012;-89
2023/07/21 02:37:16;;;;;;;30.70;16.05;;;;;;;-142.57;81.06;115900.28;6219995;23;20012;-89
2023/07/21 02:39:42;;;;;;;33.78;16.10;;;;;;;-142.57;83.11;115900.28;6219485;23;20013;-87
2023/07/21 02:42:08;;;;;;;34.67;16.70;;;;;;;-142.57;83.84;115900.28;6218256;23;20005;-88
2023/07/21 02:44:34;;;;;;;37.30;18.92;;;;;;;-142.57;86.45;115900.28;6218343;23;20419;-90
2023/07/21 02:46:59;;;;;;;28.92;17.98;;;;;;;-142.57;86.17;115900.28;6191693;23;20016;-88
2023/07/21 02:49:25;;;;;;;32.10;19.15;;;;;;;-142.57;87.09;115900.28;6192794;23;20009;-87
2023/07/21 02:51:51;;;;;;;37.38;20.10;;;;;;;-142.57;88.73;115900.28;6192138;23;20070;-87
2023/07/21 02:54:17;;;;;;;35.75;20.65;;;;;;;-142.57;89.51;115900.28;6192116;23;20488;-89
2023/07/21 02:56:44;;;;;;;41.42;22.90;;;;;;;-142.57;91.54;115900.28;6191891;23;20060;-91
2023/07/21 02:59:17;;;;;;;37.13;23.88;;;;;;;-142.57;94.19;115900.28;6191763;23;20013;-88
2023/07/21 03:01:54;;;;;;;39.97;24.45;;;;;;;-142.57;96.64;115900.28;6218861;23;20416;-90
2023/07/21 03:04:28;;;;;;;38.40;25.63;;;;;;;-142.57;98.42;115900.28;6191905;23;20017;-89
2023/07/21 03:06:58;;;;;;;45.65;27.38;;;;;;;-142.57;100.00;115900.28;6167407;23;20012;-90
2023/07/21 03:09:24;;;;;;;45.78;27.13;;;;;;;-142.57;100.00;115900.28;6191026;23;20009;-88
2023/07/21 03:11:50;;;;;;;48.13;28.63;;;;;;;-142.57;100.00;115900.28;6191466;23;20021;-88
2023/07/21 03:14:31;;;;;;;41.60;27.58;;;;;;;-142.57;100.00;115900.28;6191001;23;20016;-91
2023/07/21 03:16:56;;;;;;;49.60;30.73;;;;;;;-142.57;100.00;115900.28;6218498;23;20079;-86
2023/07/21 03:19:23;;;;;;;50.08;29.45;;;;;;;-142.57;100.00;115900.28;6190593;23;20442;-88
2023/07/21 03:21:50;;;;;;;46.17;30.27;;;;;;;-142.57;100.00;115900.28;6190956;23;20000;-89
2023/07/21 03:24:15;;;;;;;47.05;31.52;;;;;;;-142.57;100.00;115900.28;6191182;23;20012;-89
2023/07/21 03:26:41;;;;;;;48.65;29.90;;;;;;;-142.57;100.00;115900.28;6218278;23;20009;-88
2023/07/21 03:29:07;;;;;;;49.58;31.02;;;;;;;-142.57;100.00;115900.28;6191033;23;20008;-90
2023/07/21 03:31:34;;;;;;;47.00;30.88;;;;;;;-142.57;100.00;115900.28;6191128;23;20044;-91
2023/07/21 03:34:13;;;;;;;57.05;33.38;;;;;;;-142.57;100.00;115900.28;6169208;23;20015;-88
2023/07/21 03:36:38;;;;;;;50.20;31.23;;;;;;;-142.57;100.00;115900.28;6198990;23;20008;-88
2023/07/21 03:39:04;;;;;;;58.30;33.75;;;;;;;-142.57;100.00;115900.28;6196001;23;20008;-93
2023/07/21 03:41:30;;;;;;;55.63;34.22;;;;;;;-142.57;100.00;115900.28;6191053;23;20027;-91
2023/07/21 03:43:56;;;;;;;51.58;32.03;;;;;;;-142.57;100.00;115900.28;6191132;23;20020;-90
2023/07/21 03:46:22;;;;;;;57.88;34.58;;;;;;;-142.57;100.00;115900.28;6191118;23;20004;-89
2023/07/21 03:49:06;;;;;;;51.83;34.58;;;;;;;-142.57;100.00;115900.28;6195349;23;20484;-90
2023/07/21 03:51:34;;;;;;;53.85;33.92;;;;;;;-142.57;100.00;115900.28;6191042;23;20466;-90
2023/07/21 03:54:01;;;;;;;49.75;32.63;;;;;;;-142.57;100.00;115900.28;6191431;23;20080;-90
2023/07/21 03:56:26;;;;;;;51.45;31.23;;;;;;;-142.57;100.00;115900.28;6189646;23;20479;-90
2023/07/21 03:58:53;;;;;;;49.55;31.85;;;;;;;-142.57;100.00;115900.28;6166320;23;20343;-90
2023/07/21 04:01:19;;;;;;;51.08;29.98;;;;;;;-142.57;100.00;115900.28;6190742;23;20415;-88
2023/07/21 04:03:44;;;;;;;48.95;31.60;;;;;;;-142.57;100.00;115900.28;6190711;23;20043;-89
2023/07/21 04:06:10;;;;;;;51.20;30.10;;;;;;;-142.57;100.00;115900.28;6191339;23;20104;-91
2023/07/21 04:08:36;;;;;;;44.22;28.90;;;;;;;-142.57;100.00;115900.28;6217231;23;20088;-89
2023/07/21 04:11:01;;;;;;;55.05;30.50;;;;;;;-142.57;100.00;115900.28;6217771;23;20013;-91
2023/07/21 04:13:27;;;;;;;47.15;30.83;;;;;;;-142.57;100.00;115900.28;6218513;23;20461;-89
2023/07/21 04:15:53;;;;;;;51.20;30.90;;;;;;;-142.57;100.00;115900.28;6219245;23;20056;-91
2023/07/21 04:18:18;;;;;;;55.30;32.03;;;;;;;-142.57;100.00;115900.28;6218031;23;20000;-90
2023/07/21 04:20:44;;;;;;;49.53;29.65;;;;;;;-142.57;100.00;115900.28;6218700;23;20008;-91
2023/07/21 04:23:10;;;;;;;47.47;30.75;;;;;;;-142.57;100.00;115900.28;6193189;23;20013;-90
2023/07/21 04:25:36;;;;;;;46.85;30.65;;;;;;;-142.57;100.00;115900.28;6219735;23;20013;-90
2023/07/21 04:28:05;;;;;;;44.80;28.60;;;;;;;-142.57;100.00;115900.28;6193010;23;20016;-88
2023/07/21 04:30:33;;;;;;;41.17;27.58;;;;;;;-142.57;100.00;115900.28;6191953;23;20399;-90
2023/07/21 04:33:01;;;;;;;52.83;29.60;;;;;;;-142.57;100.00;115900.28;6220958;23;20016;-88
2023/07/21 04:35:27;;;;;;;60.65;29.40;;;;;;;-142.57;100.00;115900.28;6197695;23;20013;-87
2023/07/21 04:37:53;;;;;;;49.60;27.38;;;;;;;-142.57;100.00;115900.28;6192384;23;20013;-88
2023/07/21 04:40:20;;;;;;;42.22;27.52;;;;;;;-142.57;100.00;115900.28;6192304;23;20009;-88
2023/07/21 04:42:47;;;;;;;42.97;26.75;;;;;;;-142.57;100.00;115900.28;6193713;23;20008;-88
2023/07/21 04:45:15;;;;;;;42.75;26.75;;;;;;;-142.57;100.00;115900.28;6167099;23;20009;-90
2023/07/21 04:47:53;;;;;;;48.47;26.63;;;;;;;-142.57;100.00;115900.28;6192282;23;20019;-84
2023/07/21 04:50:22;;;;;;;40.22;26.05;;;;;;;-142.57;100.00;115900.28;6191875;23;20012;-87
2023/07/21 04:52:49;;;;;;;49.45;24.77;;;;;;;-142.57;100.00;115900.28;6222086;23;20023;-87
2023/07/21 04:55:15;;;;;;;42.33;24.85;;;;;;;-142.57;100.00;115900.28;6181300;23;20082;-86
2023/07/21 04:57:44;;;;;;;42.33;25.42;;;;;;;-142.57;100.00;115900.28;6194447;23;20013;-90
2023/07/21 05:00:12;;;;;;;39.22;23.30;;;;;;;-142.57;100.00;115900.28;6194534;23;20033;-90
2023/07/21 05:02:39;;;;;;;39.67;22.15;;;;;;;-142.57;100.00;115900.28;6192863;23;20013;-85
2023/07/21 05:05:04;;;;;;;47.05;23.95;;;;;;;-142.57;100.00;115900.28;6220932;23;20015;-85
2023/07/21 05:07:33;;;;;;;40.45;23.77;;;;;;;-142.57;100.00;115900.28;6166536;23;20021;-87
2023/07/21 05:10:00;;;;;;;41.42;22.17;;;;;;;-142.57;100.00;115900.28;6192035;23;20012;-88
2023/07/21 05:12:27;;;;;;;44.08;22.38;;;;;;;-142.57;100.00;115900.28;6190443;23;20015;-85
2023/07/21 05:15:13;;;;;;;38.65;22.73;;;;;;;-142.57;100.00;115900.28;6190543;23;20012;-86
2023/07/21 05:17:45;;;;;;;42.15;21.90;;;;;;;-142.57;100.00;115900.28;6191222;23;20019;-83
2023/07/21 05:20:24;;;;;;;42.75;21.65;;;;;;;-142.57;100.00;115900.28;6191584;23;20011;-86
2023/07/21 05:23:02;;;;;;;42.67;22.33;;;;;;;-142.57;100.00;115900.28;6191292;23;20012;-91
2023/07/21 05:25:36;;;;;;;39.42;20.63;;;;;;;-142.57;100.00;115900.28;6169097;23;20028;-88
2023/07/21 05:28:05;;;;;;;36.67;21.00;;;;;;;-142.57;100.00;115900.28;6192576;23;20040;-87
2023/07/21 05:30:41;;;;;;;39.60;20.77;;;;;;;-142.57;100.00;115900.28;6217684;23;20009;-86
2023/07/21 05:33:06;;;;;;;35.58;22.48;;;;;;;-142.57;100.00;115900.28;6191092;23;20020;-87
2023/07/21 05:35:32;;;;;;;41.88;21.42;;;;;;;-142.57;100.00;115900.28;6192276;23;20476;-87
2023/07/21 05:38:09;;;;;;;36.25;21.08;;;;;;;-142.57;100.00;115900.28;6194806;23;20339;-88
2023/07/21 05:40:35;;;;;;;33.03;18.52;;;;;;;-142.57;100.00;115900.28;6193617;23;20013;-85
2023/07/21 05:43:01;;;;;;;38.72;19.55;;;;;;;-142.57;100.00;115900.28;6168462;23;20018;-86
2023/07/21 05:45:27;;;;;;;42.42;20.67;;;;;;;-142.57;100.00;115900.28;6192586;23;20012;-83
2023/07/21 05:47:55;;;;;;;37.03;21.65;;;;;;;-142.57;100.00;115900.28;6193162;23;20047;-83
2023/07/21 05:50:22;;;;;;;36.05;21.13;;;;;;;-142.57;100.00;115900.28;6190842;23;20013;-85
2023/07/21 05:52:54;;;;;;;38.33;23.48;;;;;;;-142.57;100.00;115900.28;6194217;23;20020;-88
2023/07/21 05:55:27;;;;;;;44.33;22.75;;;;;;;-142.57;100.00;115900.28;6196186;23;20013;-83
2023/07/21 05:57:53;;;;;;;39.42;22.65;;;;;;;-142.57;98.72;115900.28;6168869;23;20074;-88
2023/07/21 06:00:19;;;;;;;57.00;21.95;;;;;;;-142.57;97.94;115900.28;6223671;23;20052;-88
2023/07/21 06:02:52;;;;;;;39.22;22.00;;;;;;;-142.57;98.43;115900.28;6199479;23;20017;-91
2023/07/21 06:05:18;;;;;;;42.03;22.95;;;;;;;-142.57;96.62;115900.28;6198953;23;20016;-87
2023/07/21 06:08:06;;;;;;;44.17;21.38;;;;;;;-142.57;94.90;115900.28;6223653;23;20023;-88
2023/07/21 06:10:57;;;;;;;38.55;21.55;;;;;;;-142.57;90.77;115900.28;6193065;23;20075;-89
2023/07/21 06:14:02;;;;;;;33.60;19.20;;;;;;;-142.57;85.84;115900.28;6129251;23;20022;-91
2023/07/21 06:16:32;;;;;;;29.15;18.25;;;;;;;-142.57;83.46;115900.28;6210844;23;20055;-89
2023/07/21 06:18:57;;;;;;;34.17;18.25;;;;;;;-142.57;84.41;115900.28;6225429;23;20009;-90
2023/07/21 06:21:23;;;;;;;32.53;18.38;;;;;;;-142.57;80.35;115900.28;6199714;23;20071;-86
2023/07/21 06:24:00;;;;;;;38.58;17.25;;;;;;;-142.57;78.83;115900.28;6207778;23;20068;-86
2023/07/21 06:26:26;;;;;;;30.55;17.08;;;;;;;-142.57;78.05;115900.28;6207025;23;20020;-89
2023/07/21 06:28:53;;;;;;;27.85;16.75;;;;;;;-142.57;74.37;115900.28;6232445;23;19996;-86
2023/07/21 06:31:23;;;;;;;25.08;13.52;;;;;;;-142.57;70.44;115900.28;6214005;23;20552;-86
2023/07/21 06:34:15;;;;;;;31.05;13.43;;;;;;;-142.57;72.19;115900.28;6234471;23;20028;-85
2023/07/21 06:37:06;;;;;;;21.80;12.10;;;;;;;-142.57;73.31;115900.28;6226519;23;20020;-86
2023/07/21 06:39:48;;;;;;;30.27;13.90;;;;;;;-142.57;69.08;115900.28;6220175;23;20003;-85
2023/07/21 06:42:36;;;;;;;26.20;13.85;;;;;;;-142.57;71.44;115900.28;6220142;23;20016;-87
2023/07/21 06:49:03;;;;;;;32.85;14.02;;;;;;;-142.57;65.14;115900.28;6231312;23;20073;-89
2023/07/21 06:51:42;;;;;;;32.00;14.52;;;;;;;-142.57;63.61;115900.28;6231222;23;20012;-90
2023/07/21 06:54:11;;;;;;;32.78;13.55;;;;;;;-142.57;63.58;115900.28;6206395;23;20072;-88
2023/07/21 06:56:40;;;;;;;33.42;13.50;;;;;;;-142.57;63.18;115900.28;6207757;23;20017;-88
2023/07/21 06:59:06;;;;;;;27.42;13.35;;;;;;;-142.57;62.65;115900.28;6182369;23;20012;-88
2023/07/21 07:01:34;;;;;;;27.40;13.45;;;;;;;-142.57;61.21;115900.28;6234813;23;20054;-85
2023/07/21 07:04:00;;;;;;;27.38;10.60;;;;;;;-142.57;61.12;115900.28;6228039;23;20066;-84
2023/07/21 07:06:29;;;;;;;34.13;12.57;;;;;;;-142.57;61.41;115900.28;6229175;23;20013;-85
2023/07/21 07:08:58;;;;;;;24.55;10.88;;;;;;;-142.57;61.24;115900.28;6169359;23;20019;-86
2023/07/21 07:11:32;;;;;;;23.98;8.52;;;;;;;-142.57;58.67;115900.28;6229554;23;20020;-84
2023/07/21 07:14:13;;;;;;;16.35;6.70;;;;;;;-142.57;54.88;115900.28;6209308;23;20013;-84
2023/07/21 07:16:41;;;;;;;19.75;6.30;;;;;;;-142.57;50.22;115900.28;6236765;23;20068;-85
2023/07/21 07:19:16;;;;;;;16.55;7.22;;;;;;;-142.57;50.39;115900.28;6186605;23;20095;-84
2023/07/21 07:21:54;;;;;;;20.42;7.50;;;;;;;-142.57;51.95;115900.28;6212656;23;20019;-83
2023/07/21 07:24:20;;;;;;;14.75;5.88;;;;;;;-142.57;50.39;115900.28;6206461;23;20016;-87
2023/07/21 07:27:07;;;;;;;19.50;7.13;;;;;;;-142.57;49.76;115900.28;6235477;23;20011;-84
2023/07/21 07:29:35;;;;;;;14.02;7.53;;;;;;;-142.57;48.97;115900.28;6211912;23;20020;-88
2023/07/21 07:32:11;;;;;;;20.52;7.45;;;;;;;-142.57;48.66;115900.28;6235204;23;20078;-86
2023/07/21 07:34:51;;;;;;;16.65;6.47;;;;;;;-142.57;48.00;115900.28;6226627;23;20020;-85
2023/07/21 07:37:23;;;;;;;18.50;6.20;;;;;;;-142.57;47.72;115900.28;6221386;23;20013;-87
2023/07/21 07:39:49;;;;;;;13.82;6.30;;;;;;;-142.57;45.41;115900.28;6223416;23;20019;-85
2023/07/21 07:42:14;;;;;;;16.08;5.60;;;;;;;-142.57;45.10;115900.28;6226314;23;20091;-90
2023/07/21 07:44:41;;;;;;;18.75;6.13;;;;;;;-142.57;42.44;115900.28;6197420;23;20009;-86
2023/07/21 07:47:34;;;;;;;13.07;5.50;;;;;;;-142.57;41.44;115900.28;6231570;22;20072;-88
2023/07/21 07:50:16;;;;;;;;;;;;;;;-142.57;44.26;115900.28;6223778;23;20008;-87
2023/07/21 07:52:44;;;;;;;19.88;5.68;;;;;;;-142.57;43.22;115900.28;6201343;23;19916;-87
2023/07/21 07:55:10;;;;;;;18.58;5.57;;;;;;;-142.57;41.77;115900.28;6228862;23;20008;-87
2023/07/21 07:57:58;;;;;;;14.13;4.90;;;;;;;-142.57;43.43;115900.28;6232183;23;19995;-88
2023/07/21 08:00:27;;;;;;;15.13;5.22;;;;;;;-142.57;42.05;115900.28;6235318;23;20017;-88
2023/07/21 08:03:02;;;;;;;12.73;5.22;;;;;;;-142.57;43.86;115900.28;6233163;22;20008;-86
2023/07/21 08:05:54;;;;;;;18.80;5.53;;;;;;;-142.57;41.71;115900.28;6262042;23;20065;-90
2023/07/21 08:08:22;;;;;;;16.30;5.07;;;;;;;-142.57;41.77;115900.28;6263562;23;20016;-89
2023/07/21 08:10:48;;;;;;;15.45;4.80;;;;;;;-142.57;40.22;115900.28;6267351;23;20007;-89
2023/07/21 08:13:18;;;;;;;17.90;4.57;;;;;;;-142.57;37.61;115900.28;6235241;23;20036;-89
2023/07/21 08:15:49;;;;;;;16.75;4.80;;;;;;;-142.57;37.59;115900.28;6217251;23;20017;-89
2023/07/21 08:18:33;;;;;;;13.82;5.28;;;;;;;-142.57;40.41;115900.28;6205126;23;20019;-88
2023/07/21 08:21:19;;;;;;;18.80;5.75;;;;;;;-142.57;39.25;115900.28;6203012;23;20013;-89
2023/07/21 08:24:15;;;;;;;10.73;4.53;;;;;;;-142.57;38.79;115900.28;6193132;22;20017;-91
2023/07/21 08:26:41;;;;;;;16.02;5.35;;;;;;;-142.57;39.76;115900.28;6202493;23;20008;-89
2023/07/21 08:29:17;;;;;;;15.02;4.55;;;;;;;-142.57;38.32;115900.28;6205231;23;19996;-90
2023/07/21 08:32:15;;;;;;;13.98;4.20;;;;;;;-142.57;34.62;115900.28;6205595;23;20036;-90
2023/07/21 08:43:32;;;;;;;13.25;4.72;;;;;;;-142.57;31.82;115900.28;6215446;22;20078;-86
2023/07/21 08:46:00;;;;;;;12.45;4.20;;;;;;;-142.57;31.40;115900.28;6218240;23;20016;-85
2023/07/21 08:48:27;;;;;;;8.70;4.47;;;;;;;-142.57;31.63;115900.28;6219947;23;20013;-85
2023/07/21 08:50:57;;;;;;;11.07;5.32;;;;;;;-142.57;32.30;115900.28;6235233;23;20014;-86
2023/07/21 08:53:24;;;;;;;10.38;4.10;;;;;;;-142.57;33.54;115900.28;6231203;23;20023;-88
2023/07/21 08:56:02;;;;;;;14.45;4.22;;;;;;;-142.57;33.37;115900.28;6224968;23;20008;-86
2023/07/21 08:58:28;;;;;;;15.18;4.18;;;;;;;-142.57;32.58;115900.28;6221404;23;20527;-87
2023/07/21 09:00:55;;;;;;;13.25;4.07;;;;;;;-142.57;32.08;115900.28;6220793;23;20012;-87
2023/07/21 09:03:28;;;;;;;12.90;3.80;;;;;;;-142.57;31.35;115900.28;6223589;23;20059;-87
2023/07/21 09:05:56;;;;;;;14.70;3.42;;;;;;;-142.57;30.60;115900.28;6228022;23;20064;-87
2023/07/21 09:08:29;;;;;;;22.80;5.00;;;;;;;-142.57;30.75;115900.28;6229193;23;20001;-89
2023/07/21 09:11:00;;;;;;;13.80;3.78;;;;;;;-142.57;30.81;115900.28;6226350;23;20087;-88
2023/07/21 09:13:27;;;;;;;11.30;3.40;;;;;;;-142.57;30.98;115900.28;6227631;23;20436;-86
2023/07/21 09:15:57;;;;;;;9.27;3.35;;;;;;;-142.57;30.21;115900.28;6230978;23;20017;-88
2023/07/21 09:18:26;;;;;;;11.93;4.10;;;;;;;-142.57;30.22;115900.28;6232765;23;20013;-90
2023/07/21 09:20:56;;;;;;;9.05;3.80;;;;;;;-142.57;29.96;115900.28;6228154;23;20032;-87
2023/07/21 09:23:22;;;;;;;9.52;3.13;;;;;;;-142.57;30.37;115900.28;6226649;23;20016;-84
2023/07/21 09:25:50;;;;;;;16.50;4.20;;;;;;;-142.57;31.04;115900.28;6231340;23;20083;-88
2023/07/21 09:28:18;;;;;;;13.93;5.32;;;;;;;-142.57;33.59;115900.28;6231222;23;20012;-85
2023/07/21 09:31:02;;;;;;;18.80;4.72;;;;;;;-142.57;33.41;115900.28;6231964;23;20027;-86
2023/07/21 09:33:28;;;;;;;22.75;5.28;;;;;;;-142.57;31.39;115900.28;6231323;23;20067;-85
2023/07/21 09:36:24;;;;;;;23.83;5.00;;;;;;;-142.57;29.34;115900.28;6231366;23;20005;-86
2023/07/21 09:38:50;;;;;;;15.82;4.00;;;;;;;-142.57;29.27;115900.28;6111620;23;20015;-85
2023/07/21 09:41:23;;;;;;;13.82;3.63;;;;;;;-142.57;30.27;115900.28;6111906;23;20025;-88
2023/07/21 09:43:51;;;;;;;10.93;3.45;;;;;;;-142.57;30.79;115900.28;6109335;23;20018;-86
2023/07/21 09:46:17;;;;;;;11.90;3.78;;;;;;;-142.57;31.12;115900.28;6114213;23;20014;-86
2023/07/21 09:48:47;;;;;;;12.80;3.63;;;;;;;-142.57;30.92;115900.28;6143392;23;20403;-85
2023/07/21 09:51:17;;;;;;;19.45;3.55;;;;;;;-142.57;30.99;115900.28;6233672;23;20015;-85
2023/07/21 09:53:44;;;;;;;18.42;3.95;;;;;;;-142.57;30.99;115900.28;6234992;23;20032;-88
2023/07/21 09:56:11;;;;;;;10.60;3.67;;;;;;;-142.57;31.12;115900.28;6235656;23;19999;-86
2023/07/21 09:58:54;;;;;;;15.43;3.25;;;;;;;-142.57;31.38;115900.28;6236183;23;20133;-85
2023/07/21 10:01:23;;;;;;;12.65;3.40;;;;;;;-142.57;31.42;115900.28;6229175;23;20012;-88
2023/07/21 10:04:09;;;;;;;18.25;3.83;;;;;;;-142.57;30.42;115900.28;6224976;23;20077;-85
2023/07/21 10:06:38;;;;;;;18.85;4.13;;;;;;;-142.57;30.05;115900.28;6234142;22;20036;-86
2023/07/21 10:09:08;;;;;;;20.02;3.70;;;;;;;-142.57;29.20;115900.28;6259320;23;20004;-86
2023/07/21 10:11:34;;;;;;;11.68;3.60;;;;;;;-142.57;29.01;115900.28;6261229;23;20012;-85
2023/07/21 10:14:00;;;;;;;15.25;3.70;;;;;;;-142.57;28.78;115900.28;6261146;23;20016;-87
2023/07/21 10:16:29;;;;;;;12.25;3.20;;;;;;;-142.57;28.50;115900.28;6263124;23;20008;-87
2023/07/21 10:19:08;;;;;;;10.85;3.45;;;;;;;-142.57;28.05;115900.28;6262406;23;20012;-87
2023/07/21 10:22:08;;;;;;;16.02;3.83;;;;;;;-142.57;28.04;115900.28;6263542;23;20062;-86
2023/07/21 10:24:43;;;;;;;31.88;4.30;;;;;;;-142.57;27.84;115900.28;6107905;23;20014;-87
2023/07/21 10:27:29;;;;;;;16.27;3.63;;;;;;;-142.57;27.65;115900.28;6110687;23;20017;-85
2023/07/21 10:30:21;;;;;;;114.40;8.00;;;;;;;-142.57;28.97;115900.28;6123421;23;20018;-87
2023/07/21 10:32:47;;;;;;;28.45;4.97;;;;;;;-142.57;30.77;115900.28;6125256;23;20010;-89
2023/07/21 10:35:38;;;;;;;27.92;6.07;;;;;;;-142.57;33.67;115900.28;6230045;22;20012;-85
2023/07/21 10:38:22;;;;;;;16.08;5.43;;;;;;;-142.57;36.40;115900.28;6275119;22;19993;-87
2023/07/21 10:40:48;;;;;;;25.20;5.68;;;;;;;-142.57;38.74;115900.28;6249194;22;20001;-84
2023/07/21 10:43:13;;;;;;;41.22;5.72;;;;;;;-142.57;41.27;115900.28;6246328;23;20004;-86
2023/07/21 10:45:58;;;;;;;17.92;5.00;;;;;;;-142.57;42.03;115900.28;6248922;23;19993;-88
2023/07/21 10:48:25;;;;;;;27.75;4.88;;;;;;;-142.57;41.81;115900.28;6275142;22;20016;-88
2023/07/21 10:50:54;;;;;;;13.82;4.38;;;;;;;-142.57;41.81;115900.28;6275308;22;20011;-87
2023/07/21 10:53:23;;;;;;;19.67;4.90;;;;;;;-142.57;42.68;115900.28;6274931;22;20004;-87
2023/07/21 10:55:54;;;;;;;22.90;4.65;;;;;;;-142.57;43.25;115900.28;6275041;22;20008;-87
2023/07/21 10:58:20;;;;;;;17.55;4.80;;;;;;;-142.57;44.44;115900.28;6275090;22;20051;-87
2023/07/21 11:00:51;;;;;;;21.63;4.50;;;;;;;-142.57;45.50;115900.28;6273461;22;20017;-86
2023/07/21 11:03:17;;;;;;;29.80;4.90;;;;;;;-142.57;44.78;115900.28;6238384;23;20012;-85
2023/07/21 11:05:43;;;;;;;24.17;4.07;;;;;;;-142.57;44.57;115900.28;6239128;23;20039;-87
2023/07/21 11:08:39;;;;;;;14.73;2.50;;;;;;;-142.57;46.37;115900.28;6242111;23;20012;-86
2023/07/21 11:11:10;;;;;;;13.48;2.92;;;;;;;-142.57;47.49;115900.28;6253987;23;20042;-86
2023/07/21 11:13:42;;;;;;;17.42;3.35;;;;;;;-142.57;48.49;115900.28;6267539;23;20008;-86
2023/07/21 11:16:09;;;;;;;15.57;3.08;;;;;;;-142.57;50.45;115900.28;6260278;23;20103;-86
2023/07/21 11:18:35;;;;;;;17.45;3.10;;;;;;;-142.57;50.58;115900.28;6259692;23;20015;-86
2023/07/21 11:21:01;;;;;;;15.70;2.63;;;;;;;-142.57;51.34;115900.28;6264639;23;20008;-85
2023/07/21 11:23:27;;;;;;;6.32;2.58;;;;;;;-142.57;51.55;115900.28;6260878;23;20347;-85
2023/07/21 11:26:09;;;;;;;13.50;2.90;;;;;;;-142.57;53.18;115900.28;6260974;23;20004;-85